Niigata, Japan
Current Conditions -  °F | °C
As of 3:00 PM on Wednesday 26 Nov 2014 (Local Time) from RJSN Reporting Station
Light Rain Light Rain  
Wind Chill: 41°   Ceiling: 5000
Heat Index: 46°   Visibility: 6mi
Dew Point: 43°   Wind: 13mph
Humidity: 87%   Direction: 110°ESE
Pressure: 29.94"   Gusts: NA
Location:  37.92°N, 139.04°E
Report Text: RJSN 260600Z 11011KT 9000 -RA FEW015 BKN050 08/06 Q1014
Loading
Personal Weather Stations






























Interactive Weather Map New forecast layout! Learn more

10-Day Weather Forecast

Advertisements
Track Severe Weather on mobile